Time;durP1;ratioP1;P1;durP2;ratioP2;P2;SDS_P1;SDS_P2;PMS_P1;PMS_P2;Temp;Humidity;BMP_temperature;BMP_pressure;BME280_temperature;BME280_humidity;BME280_pressure;Samples;Min_cycle;Max_cycle;Signal;HPM_P1;HPM_P2
2023/03/13 00:01:50;;;;;;;20.67;14.23;;;;;;;3.10;100.00;146835.69;5050686;28;20189;-62
2023/03/13 00:04:18;;;;;;;19.07;13.87;;;;;;;3.00;100.00;146811.88;5050990;28;20228;-63
2023/03/13 00:06:44;;;;;;;18.07;13.90;;;;;;;3.12;100.00;146842.00;5050646;28;20185;-62
2023/03/13 00:09:14;;;;;;;19.57;13.77;;;;;;;3.03;100.00;146818.13;5050593;28;20186;-63
2023/03/13 00:11:41;;;;;;;14.90;13.40;;;;;;;2.67;100.00;146730.19;5050847;28;20189;-63
2023/03/13 00:14:09;;;;;;;17.97;13.73;;;;;;;2.86;100.00;146776.69;5050744;28;20185;-63
2023/03/13 00:16:36;;;;;;;21.17;14.43;;;;;;;2.81;100.00;146764.13;5050566;28;20306;-61
2023/03/13 00:19:05;;;;;;;16.70;12.87;;;;;;;2.59;100.00;146708.91;5050789;28;20188;-63
2023/03/13 00:21:33;;;;;;;17.93;13.33;;;;;;;2.67;100.00;146730.19;5050114;28;20186;-61
2023/03/13 00:24:00;;;;;;;18.47;13.30;;;;;;;2.84;100.00;146770.41;5050594;28;20549;-62
2023/03/13 00:26:28;;;;;;;16.17;12.97;;;;;;;2.81;100.00;146762.84;5050120;28;20243;-62
2023/03/13 00:28:55;;;;;;;21.00;14.70;;;;;;;2.88;100.00;146780.47;5050469;28;20281;-62
2023/03/13 00:31:24;;;;;;;13.73;12.40;;;;;;;2.71;100.00;146740.28;5050409;28;20572;-62
2023/03/13 00:33:52;;;;;;;12.97;11.50;;;;;;;2.57;100.00;146703.84;5050564;28;20186;-63
2023/03/13 00:36:22;;;;;;;12.90;11.70;;;;;;;2.32;100.00;146642.34;5050048;28;20185;-62
2023/03/13 00:38:50;;;;;;;14.80;11.47;;;;;;;2.15;100.00;146600.94;5050344;28;20211;-63
2023/03/13 00:41:18;;;;;;;13.00;10.47;;;;;;;2.08;100.00;146583.31;5050296;28;20208;-64
2023/03/13 00:43:46;;;;;;;17.33;11.40;;;;;;;1.77;100.00;146505.56;5050108;28;20190;-62
2023/03/13 00:46:15;;;;;;;14.50;11.30;;;;;;;1.78;100.00;146509.28;5049912;28;20217;-62
2023/03/13 00:48:42;;;;;;;10.20;9.53;;;;;;;1.63;100.00;146471.69;5050329;28;20186;-62
2023/03/13 00:51:09;;;;;;;10.87;9.53;;;;;;;1.65;100.00;146475.47;5049873;28;20185;-62
2023/03/13 00:53:38;;;;;;;11.70;10.50;;;;;;;1.72;100.00;146493.00;5050162;28;20280;-67
2023/03/13 00:56:07;;;;;;;12.53;10.23;;;;;;;1.49;100.00;146435.28;5050197;28;20185;-63
2023/03/13 00:58:38;;;;;;;10.50;9.70;;;;;;;1.59;100.00;146461.63;5050117;28;20824;-62
2023/03/13 01:01:10;;;;;;;10.67;9.63;;;;;;;1.45;100.00;146426.50;5049957;28;20253;-63
2023/03/13 01:03:37;;;;;;;11.37;9.97;;;;;;;1.51;100.00;146440.31;5049991;28;20202;-62
2023/03/13 01:06:07;;;;;;;11.13;10.13;;;;;;;1.35;100.00;146401.44;5049525;28;20209;-63
2023/03/13 01:08:34;;;;;;;12.87;10.90;;;;;;;1.62;100.00;146467.88;5049676;28;20307;-63
2023/03/13 01:11:04;;;;;;;16.30;11.53;;;;;;;1.77;100.00;146506.81;5049879;28;20496;-62
2023/03/13 01:13:32;;;;;;;13.50;10.37;;;;;;;1.62;100.00;146467.88;5049550;28;20204;-62
2023/03/13 01:16:02;;;;;;;11.97;11.07;;;;;;;1.94;100.00;146548.22;5049509;28;20632;-62
2023/03/13 01:18:29;;;;;;;13.23;11.57;;;;;;;2.16;100.00;146602.19;5049861;28;20552;-63
2023/03/13 01:20:56;;;;;;;13.83;11.13;;;;;;;2.06;100.00;146578.34;5050097;28;20631;-62
2023/03/13 01:23:23;;;;;;;11.83;10.27;;;;;;;2.29;100.00;146636.03;5049406;28;20204;-62
2023/03/13 01:25:49;;;;;;;11.77;9.93;;;;;;;2.29;100.00;146634.81;5049358;28;20209;-62
2023/03/13 01:28:18;;;;;;;14.97;10.43;;;;;;;2.06;100.00;146578.34;5049522;28;20189;-62
2023/03/13 01:30:44;;;;;;;15.13;10.30;;;;;;;1.93;100.00;146544.44;5049606;28;20652;-63
2023/03/13 01:33:11;;;;;;;11.40;10.23;;;;;;;2.04;100.00;146573.28;5048445;28;20186;-63
2023/03/13 01:35:38;;;;;;;10.90;9.40;;;;;;;2.03;100.00;146569.56;5049106;28;20178;-64
2023/03/13 01:38:05;;;;;;;13.27;9.70;;;;;;;2.14;100.00;146598.41;5049162;28;20193;-62
2023/03/13 01:40:38;;;;;;;16.37;10.27;;;;;;;1.89;100.00;146535.66;5049379;28;20632;-63
2023/03/13 01:43:17;;;;;;;13.23;9.97;;;;;;;1.78;100.00;146509.28;5049461;28;20208;-65
2023/03/13 01:46:13;;;;;;;16.40;10.03;;;;;;;1.81;100.00;146515.59;5048929;28;20213;-64
2023/03/13 01:48:45;;;;;;;12.87;9.40;;;;;;;1.60;100.00;146462.91;5049087;28;20268;-63
2023/03/13 01:51:16;;;;;;;11.10;8.97;;;;;;;0.96;100.00;146304.88;5048985;28;20190;-63
2023/03/13 01:53:46;;;;;;;11.33;10.23;;;;;;;1.53;100.00;146446.56;5049209;28;20203;-62
2023/03/13 01:56:18;;;;;;;13.33;10.50;;;;;;;1.35;100.00;146401.44;5048901;28;20197;-63
2023/03/13 01:58:46;;;;;;;10.90;9.90;;;;;;;1.32;100.00;146395.16;5048864;28;20280;-63
2023/03/13 02:01:15;;;;;;;12.20;10.90;;;;;;;1.27;100.00;146382.59;5049110;28;20239;-62
2023/03/13 02:03:43;;;;;;;11.43;10.43;;;;;;;1.53;100.00;146446.56;5048789;28;20197;-63
2023/03/13 02:06:11;;;;;;;13.23;10.70;;;;;;;1.50;100.00;146439.06;5048728;28;20206;-62
2023/03/13 02:08:43;;;;;;;16.10;11.30;;;;;;;1.07;100.00;146332.44;5049176;28;20251;-61
2023/03/13 02:11:19;;;;;;;15.30;10.80;;;;;;;1.34;100.00;146400.19;5048651;28;20220;-63
2023/03/13 02:13:47;;;;;;;13.00;9.80;;;;;;;1.40;100.00;146412.75;5048671;28;20275;-62
2023/03/13 02:16:16;;;;;;;13.40;9.80;;;;;;;1.51;100.00;146441.56;5048587;28;20308;-63
2023/03/13 02:18:44;;;;;;;10.43;9.47;;;;;;;1.20;100.00;146363.81;5048972;28;20186;-61
2023/03/13 02:21:16;;;;;;;13.43;10.33;;;;;;;1.26;100.00;146380.13;5048819;28;20277;-62
2023/03/13 02:23:51;;;;;;;10.83;9.97;;;;;;;1.07;100.00;146331.19;5048846;28;20556;-62
2023/03/13 02:26:20;;;;;;;12.97;9.37;;;;;;;1.12;100.00;146345.00;5048710;28;20209;-63
2023/03/13 02:28:49;;;;;;;12.63;9.87;;;;;;;1.18;100.00;146360.06;5048747;28;20549;-63
2023/03/13 02:31:16;;;;;;;10.43;9.53;;;;;;;0.98;100.00;146309.88;5048842;28;20186;-62
2023/03/13 02:33:43;;;;;;;11.90;10.30;;;;;;;1.02;100.00;146319.91;5048477;28;20190;-64
2023/03/13 02:36:14;;;;;;;10.80;9.03;;;;;;;1.05;100.00;146326.19;5048248;28;20699;-63
2023/03/13 02:38:45;;;;;;;12.93;10.10;;;;;;;1.18;100.00;146360.06;5048282;28;20200;-64
2023/03/13 02:41:13;;;;;;;11.13;10.10;;;;;;;1.31;100.00;146391.41;5048291;28;20185;-62
2023/03/13 02:43:41;;;;;;;11.40;9.23;;;;;;;1.23;100.00;146371.34;5048294;28;20190;-62
2023/03/13 02:46:10;;;;;;;16.73;9.93;;;;;;;1.25;100.00;146377.59;5051212;28;20206;-64
2023/03/13 02:48:39;;;;;;;12.07;10.17;;;;;;;1.07;100.00;146331.19;5052129;28;20208;-63
2023/03/13 02:51:14;;;;;;;9.87;9.00;;;;;;;0.93;100.00;146297.38;5052018;28;20619;-63
2023/03/13 02:53:43;;;;;;;9.87;8.97;;;;;;;0.80;100.00;146264.78;5052001;28;20560;-62
2023/03/13 02:56:12;;;;;;;10.30;9.27;;;;;;;0.59;100.00;146213.38;5051703;28;20181;-65
2023/03/13 02:58:42;;;;;;;10.50;9.60;;;;;;;0.62;100.00;146219.63;5052140;28;20604;-62
2023/03/13 03:01:09;;;;;;;10.70;9.37;;;;;;;0.66;100.00;146230.91;5051933;28;20579;-63
2023/03/13 03:03:36;;;;;;;11.70;9.77;;;;;;;0.96;100.00;146303.63;5051981;28;20276;-63
2023/03/13 03:06:05;;;;;;;10.97;9.87;;;;;;;0.87;100.00;146282.31;5051463;28;20262;-63
2023/03/13 03:08:32;;;;;;;12.10;10.07;;;;;;;1.02;100.00;146319.91;5051563;28;20190;-64
2023/03/13 03:10:59;;;;;;;12.00;10.40;;;;;;;1.00;100.00;146314.91;5051751;28;20582;-64
2023/03/13 03:13:27;;;;;;;13.07;9.57;;;;;;;1.04;100.00;146324.94;5051444;28;20193;-63
2023/03/13 03:15:56;;;;;;;19.03;9.73;;;;;;;1.00;100.00;146314.91;5051553;28;20616;-62
2023/03/13 03:18:22;;;;;;;12.07;10.30;;;;;;;0.77;100.00;146257.22;5051653;28;20202;-63
2023/03/13 03:20:49;;;;;;;12.77;9.70;;;;;;;0.91;100.00;146293.59;5051232;28;20200;-64
2023/03/13 03:23:16;;;;;;;11.83;9.73;;;;;;;0.72;100.00;146245.94;5051338;28;20189;-63
2023/03/13 03:25:43;;;;;;;14.40;9.37;;;;;;;0.62;100.00;146220.91;5051463;28;20540;-62
2023/03/13 03:28:10;;;;;;;13.20;9.50;;;;;;;0.57;100.00;146207.09;5051128;28;20189;-62
2023/03/13 03:30:37;;;;;;;18.13;9.33;;;;;;;0.42;100.00;146170.78;5051103;28;20193;-62
2023/03/13 03:33:05;;;;;;;14.07;10.97;;;;;;;0.20;100.00;146115.63;5051321;28;20204;-62
2023/03/13 03:35:32;;;;;;;12.23;10.90;;;;;;;0.16;100.00;146106.88;5051467;28;20186;-62
2023/03/13 03:38:00;;;;;;;15.13;10.47;;;;;;;0.17;100.00;146109.34;5051263;28;20623;-63
2023/03/13 03:40:27;;;;;;;10.93;9.97;;;;;;;0.50;100.00;146189.56;5051260;28;20205;-64
2023/03/13 03:42:54;;;;;;;15.57;10.67;;;;;;;0.60;100.00;143812.13;5050981;28;20186;-62
2023/03/13 03:45:21;;;;;;;14.57;10.83;;;;;;;0.65;100.00;142297.84;5050849;28;20678;-62
2023/03/13 03:47:48;;;;;;;18.57;11.27;;;;;;;0.68;100.00;144248.28;5050894;28;20189;-63
2023/03/13 03:50:16;;;;;;;13.27;10.80;;;;;;;0.37;100.00;146159.50;5050868;28;20186;-63
2023/03/13 03:52:43;;;;;;;12.30;10.77;;;;;;;0.64;100.00;146225.88;5051107;28;20551;-63
2023/03/13 03:55:10;;;;;;;14.07;9.93;;;;;;;0.50;100.00;146189.56;5050722;28;20234;-62
2023/03/13 03:57:37;;;;;;;14.87;11.23;;;;;;;0.44;100.00;146175.75;5050055;28;20181;-64
2023/03/13 04:00:06;;;;;;;12.73;10.50;;;;;;;0.17;100.00;146109.34;5050993;28;20205;-63
2023/03/13 04:02:33;;;;;;;13.50;10.57;;;;;;;0.43;100.00;146174.50;5050966;28;20216;-64
2023/03/13 04:05:00;;;;;;;11.73;10.50;;;;;;;0.48;100.00;146185.78;5050799;28;20190;-63
2023/03/13 04:07:28;;;;;;;18.70;10.50;;;;;;;0.40;100.00;146167.00;5050868;28;20189;-62
2023/03/13 04:09:55;;;;;;;16.53;13.00;;;;;;;0.67;100.00;146232.19;5050796;28;20189;-62
2023/03/13 04:12:22;;;;;;;20.43;12.27;;;;;;;0.91;100.00;146292.34;5050881;28;20636;-62
2023/03/13 04:14:49;;;;;;;15.30;12.00;;;;;;;0.89;100.00;146287.34;5050436;28;20190;-62
2023/03/13 04:17:16;;;;;;;26.40;12.23;;;;;;;0.91;100.00;146292.34;5050400;28;20229;-63
2023/03/13 04:19:42;;;;;;;16.97;11.17;;;;;;;0.78;100.00;146259.75;5050450;28;20186;-63
2023/03/13 04:22:09;;;;;;;21.43;10.83;;;;;;;0.83;100.00;146272.28;5050429;28;20190;-64
2023/03/13 04:24:38;;;;;;;19.33;12.57;;;;;;;0.78;100.00;146259.75;5033018;28;20628;-63
2023/03/13 04:27:12;;;;;;;102.60;33.23;;;;;;;0.79;100.00;146262.25;5050427;28;20201;-64
2023/03/13 04:29:39;;;;;;;110.00;33.43;;;;;;;0.95;100.00;146302.38;5050493;28;20635;-64
2023/03/13 04:32:06;;;;;;;96.00;29.93;;;;;;;0.98;100.00;146309.88;5050471;28;20193;-63
2023/03/13 04:34:33;;;;;;;100.50;29.10;;;;;;;0.99;100.00;146312.38;5050369;28;20192;-64
2023/03/13 04:37:00;;;;;;;46.90;20.00;;;;;;;0.93;100.00;146296.13;5050145;28;20193;-63
2023/03/13 04:39:27;;;;;;;53.30;19.80;;;;;;;0.79;100.00;146263.53;5050150;28;20220;-62
2023/03/13 04:41:55;;;;;;;38.00;17.60;;;;;;;0.98;100.00;146309.88;5050388;28;20268;-63
2023/03/13 04:44:23;;;;;;;71.30;22.63;;;;;;;1.17;100.00;146357.53;5050392;28;20629;-63
2023/03/13 04:46:50;;;;;;;76.73;25.47;;;;;;;1.48;100.00;146434.06;5050269;28;20216;-63
2023/03/13 04:49:17;;;;;;;85.00;29.63;;;;;;;1.60;100.00;146462.91;5050190;28;20194;-63
2023/03/13 04:51:45;;;;;;;80.87;27.70;;;;;;;2.00;100.00;146562.00;5050325;28;20200;-62
2023/03/13 04:54:12;;;;;;;84.60;29.83;;;;;;;2.14;100.00;146598.41;5050031;28;20201;-63
2023/03/13 04:56:39;;;;;;;68.77;22.83;;;;;;;2.28;100.00;146633.56;5050275;28;20186;-63
2023/03/13 04:59:07;;;;;;;46.10;19.27;;;;;;;2.36;100.00;146651.13;5049801;28;20185;-64
2023/03/13 05:01:34;;;;;;;54.70;20.20;;;;;;;2.44;100.00;146671.22;5049788;28;20196;-63
2023/03/13 05:04:01;;;;;;;44.13;20.63;;;;;;;2.90;100.00;146786.72;5050105;28;20194;-62
2023/03/13 05:06:27;;;;;;;59.43;20.77;;;;;;;3.47;100.00;146927.44;5049658;28;20220;-62
2023/03/13 05:08:54;;;;;;;60.97;21.40;;;;;;;3.94;100.00;147044.31;5048728;28;20194;-63
2023/03/13 05:11:22;;;;;;;57.17;22.23;;;;;;;4.58;100.00;147204.03;5049558;28;20182;-65
2023/03/13 05:13:48;;;;;;;58.77;21.17;;;;;;;5.51;100.00;147435.53;5049569;28;20185;-63
2023/03/13 05:16:17;;;;;;;55.23;21.10;;;;;;;5.73;100.00;147490.88;5049331;27;20227;-63
2023/03/13 05:18:46;;;;;;;54.80;20.17;;;;;;;6.18;100.00;147601.78;5049708;28;20197;-62
2023/03/13 05:21:13;;;;;;;66.57;26.07;;;;;;;6.87;100.00;147775.59;5049783;28;20182;-63
2023/03/13 05:23:40;;;;;;;57.10;23.33;;;;;;;7.27;100.00;147873.91;5049401;28;20209;-63
2023/03/13 05:26:07;;;;;;;62.50;23.20;;;;;;;7.45;100.00;147919.31;5049243;28;20209;-63
2023/03/13 05:28:34;;;;;;;43.47;19.93;;;;;;;7.11;100.00;147834.88;5049325;28;20196;-63
2023/03/13 05:31:01;;;;;;;30.27;17.77;;;;;;;6.63;100.00;147715.13;5049824;28;20204;-63
2023/03/13 05:33:30;;;;;;;53.80;20.70;;;;;;;6.06;100.00;147571.56;5049381;28;20197;-62
2023/03/13 05:35:57;;;;;;;54.73;21.67;;;;;;;7.14;100.00;147841.16;5049362;28;20193;-63
2023/03/13 05:38:24;;;;;;;37.77;18.13;;;;;;;7.94;100.00;148040.34;5049381;28;20190;-63
2023/03/13 05:40:51;;;;;;;28.40;19.03;;;;;;;8.60;100.00;148205.72;5049367;28;20193;-64
2023/03/13 05:43:18;;;;;;;24.70;18.77;;;;;;;8.56;100.00;148196.88;5049390;28;20194;-64
2023/03/13 05:45:45;;;;;;;33.07;21.40;;;;;;;8.69;100.00;148229.72;5049513;28;20247;-63
2023/03/13 05:48:11;;;;;;;19.43;17.47;;;;;;;8.11;100.00;148083.25;5049261;28;20279;-63
2023/03/13 05:50:40;;;;;;;27.87;18.53;;;;;;;7.19;100.00;147855.03;5049523;28;20189;-63
2023/03/13 05:53:07;;;;;;;26.53;18.67;;;;;;;7.07;100.00;147824.78;5049295;28;20208;-64
2023/03/13 05:55:33;;;;;;;35.70;21.23;;;;;;;6.84;100.00;147768.06;5049803;28;20189;-64
2023/03/13 05:58:00;;;;;;;48.30;21.00;;;;;;;6.85;100.00;147770.59;5049833;28;20276;-63
2023/03/13 06:00:27;;;;;;;32.37;21.90;;;;;;;6.91;100.00;147784.47;5031586;28;20190;-64
2023/03/13 06:02:54;;;;;;;36.43;22.57;;;;;;;6.91;100.00;147783.19;5049779;28;20224;-63
2023/03/13 06:05:22;;;;;;;59.70;24.10;;;;;;;7.14;100.00;147842.41;5049804;28;20632;-63
2023/03/13 06:07:50;;;;;;;39.83;23.80;;;;;;;7.19;100.00;147853.75;5049583;28;20212;-63
2023/03/13 06:10:17;;;;;;;47.03;24.83;;;;;;;7.34;100.00;147892.81;5049593;28;20246;-64
2023/03/13 06:12:45;;;;;;;47.53;24.87;;;;;;;7.27;100.00;147873.91;5049440;28;20556;-63
2023/03/13 06:15:12;;;;;;;63.80;27.40;;;;;;;7.64;100.00;147967.22;5049306;28;20190;-64
2023/03/13 06:17:38;;;;;;;56.33;25.23;;;;;;;7.77;100.00;148000.00;5049165;28;20260;-64
2023/03/13 06:20:06;;;;;;;43.57;24.83;;;;;;;8.08;100.00;148075.69;5049438;28;20197;-64
2023/03/13 06:22:33;;;;;;;45.73;24.80;;;;;;;8.40;100.00;148155.25;5049548;28;20185;-63
2023/03/13 06:25:01;;;;;;;59.53;25.33;;;;;;;9.31;100.00;148383.69;5049238;28;20190;-63
2023/03/13 06:27:28;;;;;;;44.13;22.27;;;;;;;10.19;100.00;148603.53;5049063;28;20209;-63
2023/03/13 06:29:55;;;;;;;55.53;23.90;;;;;;;10.86;100.00;148771.63;5050378;28;20205;-63
2023/03/13 06:32:22;;;;;;;48.57;21.73;;;;;;;11.18;100.00;148851.31;5049719;28;20190;-63
2023/03/13 06:34:49;;;;;;;44.10;19.67;;;;;;;11.75;100.00;148994.28;5049268;28;20200;-62
2023/03/13 06:37:16;;;;;;;35.87;18.93;;;;;;;11.65;100.00;148967.69;5050415;28;20188;-63
2023/03/13 06:39:43;;;;;;;30.67;19.70;;;;;;;12.18;100.00;149101.84;5049095;28;20284;-63
2023/03/13 06:42:11;;;;;;;51.00;22.60;;;;;;;12.49;100.00;149179.06;5048780;28;20189;-63
2023/03/13 06:44:38;;;;;;;32.70;23.40;;;;;;;12.20;100.00;149105.66;5020780;28;20204;-64
2023/03/13 06:47:05;;;;;;;43.13;23.63;;;;;;;12.48;100.00;149175.25;5047692;28;20674;-63
2023/03/13 06:49:32;;;;;;;47.97;26.50;;;;;;;12.45;100.00;149167.69;5052090;28;20195;-64
2023/03/13 06:51:59;;;;;;;48.80;26.30;;;;;;;12.15;100.00;149094.25;5047183;28;20205;-65
2023/03/13 06:54:26;;;;;;;50.77;26.93;;;;;;;12.25;100.00;149118.31;5040285;28;20197;-63
2023/03/13 06:56:53;;;;;;;49.83;28.30;;;;;;;12.07;100.00;149072.75;5048584;28;20220;-64
2023/03/13 06:59:22;;;;;;;44.47;26.53;;;;;;;12.25;100.00;149118.31;5087668;27;20193;-63
2023/03/13 07:01:48;;;;;;;51.03;28.27;;;;;;;11.93;100.00;149037.31;5023056;28;20205;-65
2023/03/13 07:04:16;;;;;;;44.73;29.70;;;;;;;12.54;100.00;149191.75;5029999;28;20700;-64
2023/03/13 07:06:45;;;;;;;45.47;29.20;;;;;;;12.35;100.00;149143.63;5040931;28;20284;-64
2023/03/13 07:09:12;;;;;;;43.50;28.03;;;;;;;12.32;100.00;149137.31;5082105;27;20564;-64
2023/03/13 07:11:39;;;;;;;78.23;28.40;;;;;;;12.59;97.94;149203.16;5028289;28;20242;-66
2023/03/13 07:14:06;;;;;;;50.93;25.87;;;;;;;12.49;91.13;149177.81;5028030;28;20228;-65
2023/03/13 07:16:34;;;;;;;27.27;23.07;;;;;;;12.63;84.79;149213.25;5065242;28;20219;-62
2023/03/13 07:19:01;;;;;;;36.13;22.57;;;;;;;13.18;77.75;149352.63;5123473;28;20198;-64
2023/03/13 07:21:27;;;;;;;29.70;22.07;;;;;;;13.23;81.01;149364.03;5129690;28;20194;-65
2023/03/13 07:23:57;;;;;;;75.23;23.10;;;;;;;13.56;74.43;149446.34;5117096;28;20221;-64
2023/03/13 07:26:24;;;;;;;25.00;19.23;;;;;;;13.86;69.46;149522.41;5122229;28;20203;-64
2023/03/13 07:28:51;;;;;;;60.97;23.40;;;;;;;14.19;72.91;149606.03;5124244;28;20186;-65
2023/03/13 07:31:22;;;;;;;34.00;19.23;;;;;;;13.85;69.43;149519.84;5132021;27;20206;-64
2023/03/13 07:33:53;;;;;;;32.07;19.40;;;;;;;14.39;69.20;149654.25;5114860;28;20195;-64
2023/03/13 07:36:20;;;;;;;30.77;18.43;;;;;;;14.38;63.96;149653.03;5097143;28;20665;-63
2023/03/13 07:38:50;;;;;;;26.93;16.87;;;;;;;14.56;61.29;149698.63;5118648;27;20190;-64
2023/03/13 07:41:17;;;;;;;18.77;14.50;;;;;;;14.37;57.88;149650.47;5136378;27;20205;-64
2023/03/13 07:43:47;;;;;;;17.47;15.67;;;;;;;14.50;57.49;149682.16;5131178;27;20199;-64
2023/03/13 07:46:17;;;;;;;13.90;12.73;;;;;;;14.13;56.09;149590.81;5121586;27;20183;-65
2023/03/13 07:48:44;;;;;;;34.00;18.77;;;;;;;14.30;56.15;149632.63;5134907;27;20737;-64
2023/03/13 07:51:15;;;;;;;29.83;19.33;;;;;;;14.57;56.17;149701.16;5134413;27;20198;-65
2023/03/13 07:53:46;;;;;;;14.67;13.30;;;;;;;14.51;53.44;149684.72;5117090;27;20203;-65
2023/03/13 07:56:14;;;;;;;16.33;14.67;;;;;;;14.43;55.15;149664.38;5134269;27;20194;-65
2023/03/13 07:58:42;;;;;;;18.97;14.57;;;;;;;14.08;55.07;149578.19;5133202;27;20200;-66
2023/03/13 08:01:10;;;;;;;12.37;11.57;;;;;;;14.28;53.03;149627.59;5134763;27;20293;-65
2023/03/13 08:03:38;;;;;;;11.93;10.80;;;;;;;14.03;52.85;149564.22;5123548;27;20226;-64
2023/03/13 08:06:07;;;;;;;12.23;11.30;;;;;;;13.13;56.37;149338.69;5118455;27;20287;-65
2023/03/13 08:08:37;;;;;;;11.03;9.50;;;;;;;13.10;53.29;149332.38;5134614;27;20653;-64
2023/03/13 08:11:05;;;;;;;13.47;11.10;;;;;;;13.23;54.62;149364.03;5134301;27;20194;-65
2023/03/13 08:13:35;;;;;;;9.60;8.80;;;;;;;13.38;51.23;149402.00;5123631;27;20206;-67
2023/03/13 08:16:06;;;;;;;12.23;11.00;;;;;;;13.44;53.29;149417.22;5133731;27;20194;-64
2023/03/13 08:18:37;;;;;;;13.20;8.77;;;;;;;13.78;52.11;149502.13;5132160;27;20194;-65
2023/03/13 08:21:05;;;;;;;8.00;7.23;;;;;;;14.14;49.56;149593.34;5121771;27;20212;-64
2023/03/13 08:23:33;;;;;;;6.30;5.63;;;;;;;14.35;47.96;149644.06;5119270;27;20187;-65
2023/03/13 08:26:07;;;;;;;6.00;5.60;;;;;;;14.39;46.42;149655.50;5113094;27;20204;-65
2023/03/13 08:28:34;;;;;;;7.87;4.50;;;;;;;13.89;45.75;149529.97;5132449;27;20210;-64
2023/03/13 08:31:12;;;;;;;7.97;6.03;;;;;;;14.09;49.16;149580.69;5119586;27;20204;-64
2023/03/13 08:33:39;;;;;;;6.40;5.73;;;;;;;14.19;48.94;149604.78;5119395;27;20206;-65
2023/03/13 08:36:12;;;;;;;3.10;2.50;;;;;;;14.25;40.88;149618.72;5113733;28;20191;-65
2023/03/13 08:38:40;;;;;;;3.00;1.80;;;;;;;13.88;39.07;149526.16;5130910;27;20202;-63
2023/03/13 08:41:09;;;;;;;6.67;4.20;;;;;;;13.78;46.17;149502.13;5133807;27;20194;-63
2023/03/13 08:43:38;;;;;;;3.67;2.60;;;;;;;13.97;44.42;149550.25;5133076;27;20277;-65
2023/03/13 08:46:05;;;;;;;1.80;1.70;;;;;;;13.96;40.57;149547.72;5113797;27;20213;-64
2023/03/13 08:48:32;;;;;;;4.27;1.93;;;;;;;14.03;39.96;149565.50;5123634;27;20218;-64
2023/03/13 08:51:04;;;;;;;2.03;1.67;;;;;;;13.97;39.36;149550.25;5112984;28;20215;-64
2023/03/13 08:53:31;;;;;;;3.20;2.00;;;;;;;14.24;39.46;149616.19;5115108;27;20206;-66
2023/03/13 08:55:59;;;;;;;1.30;1.20;;;;;;;13.99;39.67;149554.06;5126632;27;20194;-64
2023/03/13 08:58:27;;;;;;;1.17;1.07;;;;;;;13.80;39.64;149505.88;5128801;27;20667;-64
2023/03/13 09:00:55;;;;;;;1.10;1.10;;;;;;;13.76;39.49;149497.03;5113025;27;20200;-64
2023/03/13 09:03:24;;;;;;;2.37;1.20;;;;;;;13.70;38.74;149483.13;5114183;27;20206;-64
2023/03/13 09:05:51;;;;;;;2.07;1.57;;;;;;;13.89;38.43;149528.72;5112714;28;20277;-63
2023/03/13 09:08:23;;;;;;;4.87;1.33;;;;;;;14.01;39.29;149560.41;5123026;27;20230;-65
2023/03/13 09:10:55;;;;;;;1.20;1.20;;;;;;;14.47;40.53;149675.78;5112295;28;20644;-64
2023/03/13 09:13:22;;;;;;;4.10;1.70;;;;;;;14.37;41.99;149650.47;5126468;27;20214;-64
2023/03/13 09:15:55;;;;;;;3.37;2.07;;;;;;;14.67;41.34;149725.28;5117043;27;20203;-63
2023/03/13 09:18:25;;;;;;;2.87;1.70;;;;;;;14.73;41.47;149740.47;5122198;27;20187;-64
2023/03/13 09:20:53;;;;;;;2.73;1.70;;;;;;;14.54;40.64;149692.31;5112705;28;20641;-64
2023/03/13 09:23:21;;;;;;;2.63;2.00;;;;;;;14.44;41.49;149666.94;5114010;27;20195;-63
2023/03/13 09:25:48;;;;;;;1.73;1.57;;;;;;;14.44;41.30;149668.19;5112733;28;20692;-64
2023/03/13 09:28:18;;;;;;;3.97;1.80;;;;;;;14.79;40.87;149755.72;5122559;27;20298;-65
2023/03/13 09:30:45;;;;;;;1.50;1.40;;;;;;;14.94;39.64;149793.75;5111744;28;20196;-63
2023/03/13 09:33:14;;;;;;;3.63;2.07;;;;;;;14.75;41.35;149745.56;5114595;27;20559;-64
2023/03/13 09:35:41;;;;;;;4.37;1.83;;;;;;;14.37;41.92;149649.19;5112619;28;20214;-63
2023/03/13 09:38:08;;;;;;;2.50;1.83;;;;;;;14.28;41.79;149627.59;5104306;27;20688;-63
2023/03/13 09:40:51;;;;;;;2.10;2.00;;;;;;;14.80;43.05;149758.25;5111936;27;20213;-63
2023/03/13 09:43:26;;;;;;;4.40;4.10;;;;;;;14.75;44.88;149744.28;5114992;27;20195;-63
2023/03/13 09:45:56;;;;;;;2.53;2.33;;;;;;;14.75;44.35;149745.56;5109971;27;20255;-64
2023/03/13 09:48:32;;;;;;;3.23;3.03;;;;;;;15.21;45.75;149859.72;5120195;27;20206;-64
2023/03/13 09:51:06;;;;;;;2.23;1.83;;;;;;;15.08;44.58;149829.28;5115144;27;20647;-64
2023/03/13 09:53:41;;;;;;;2.47;2.37;;;;;;;14.93;44.60;149791.22;5121676;27;20543;-64
2023/03/13 09:56:17;;;;;;;3.03;2.23;;;;;;;14.93;47.01;149791.22;5127648;27;20204;-63
2023/03/13 09:58:51;;;;;;;2.37;2.13;;;;;;;15.00;46.76;149808.97;5122449;27;20187;-63
2023/03/13 10:01:26;;;;;;;7.60;2.60;;;;;;;15.23;47.03;149864.81;5120720;27;20213;-63
2023/03/13 10:04:04;;;;;;;5.20;3.20;;;;;;;14.53;48.65;149691.03;5104105;27;20199;-65
2023/03/13 10:06:38;;;;;;;8.20;2.97;;;;;;;14.53;48.35;149691.03;5103370;28;20191;-64
2023/03/13 10:09:19;;;;;;;2.60;2.40;;;;;;;14.55;49.90;149694.84;5115340;27;20231;-64
2023/03/13 10:11:53;;;;;;;3.50;2.60;;;;;;;14.20;51.88;149607.31;5111660;28;20205;-63
2023/03/13 10:14:27;;;;;;;4.27;2.10;;;;;;;13.70;49.97;149481.84;5113638;27;20210;-64
2023/03/13 10:16:59;;;;;;;2.00;1.90;;;;;;;13.63;50.88;149465.34;5073767;28;20235;-63
2023/03/13 10:19:36;;;;;;;2.17;1.97;;;;;;;13.09;52.17;149329.78;5090672;27;20220;-64
2023/03/13 10:22:11;;;;;;;2.90;1.33;;;;;;;13.09;53.78;149329.78;5027799;28;20200;-64
2023/03/13 10:24:47;;;;;;;1.77;1.67;;;;;;;13.25;54.05;149370.34;5028303;28;20227;-62
2023/03/13 10:27:15;;;;;;;5.93;1.53;;;;;;;13.56;53.38;149447.63;5027756;28;20579;-64
2023/03/13 10:29:42;;;;;;;1.77;1.33;;;;;;;14.01;52.67;149560.41;5027991;28;20249;-63
2023/03/13 10:32:13;;;;;;;6.57;1.80;;;;;;;14.25;51.54;149618.72;5027621;28;20683;-64
2023/03/13 10:34:57;;;;;;;5.23;1.90;;;;;;;14.71;48.51;149735.44;5038960;27;20739;-64
2023/03/13 10:37:29;;;;;;;2.10;1.50;;;;;;;14.70;49.42;149731.59;5043918;27;20194;-63
2023/03/13 10:40:12;;;;;;;3.60;1.90;;;;;;;14.69;52.13;149729.06;5080555;27;20202;-63
2023/03/13 10:42:43;;;;;;;2.70;1.20;;;;;;;14.45;49.67;149669.47;5038376;27;20240;-63
2023/03/13 10:45:16;;;;;;;1.60;1.50;;;;;;;14.17;50.80;149600.94;5039324;28;20205;-65
2023/03/13 10:47:43;;;;;;;5.10;1.40;;;;;;;14.14;52.58;149593.34;5044703;27;20597;-65
2023/03/13 10:50:18;;;;;;;2.43;1.70;;;;;;;14.51;51.81;149685.94;5071952;27;20202;-64
2023/03/13 10:52:47;;;;;;;5.20;1.93;;;;;;;14.69;51.99;149730.31;5037732;27;20197;-67
2023/03/13 10:55:18;;;;;;;1.57;1.47;;;;;;;14.21;53.17;149608.59;5027455;28;20202;-64
2023/03/13 10:57:56;;;;;;;5.90;1.03;;;;;;;13.88;55.11;149526.16;5042435;27;20217;-63
2023/03/13 11:00:30;;;;;;;4.37;1.37;;;;;;;13.88;54.82;149526.16;5064376;27;20209;-63
2023/03/13 11:02:57;;;;;;;1.50;1.20;;;;;;;14.23;51.58;149614.91;5037497;27;20220;-64
2023/03/13 11:05:37;;;;;;;2.80;1.40;;;;;;;14.97;52.14;149801.38;5027387;28;20209;-64
2023/03/13 11:08:18;;;;;;;2.47;1.50;;;;;;;15.73;51.44;149991.75;5057794;27;20692;-63
2023/03/13 11:10:54;;;;;;;4.63;1.33;;;;;;;16.31;50.08;150136.44;5051884;27;20198;-64
2023/03/13 11:13:29;;;;;;;1.80;1.10;;;;;;;16.53;47.41;150192.31;5041973;27;20202;-64
2023/03/13 11:16:00;;;;;;;1.10;1.00;;;;;;;16.78;46.85;150255.84;5029969;28;20296;-64
2023/03/13 11:18:37;;;;;;;4.63;1.60;;;;;;;15.86;49.57;150024.75;5019084;28;20194;-63
2023/03/13 11:21:06;;;;;;;1.90;1.43;;;;;;;15.29;49.61;149880.00;5012477;28;20198;-64
2023/03/13 11:23:37;;;;;;;1.83;1.30;;;;;;;13.97;52.71;149550.25;5013352;28;20672;-65